createdAt,value
2022-08-10T00:00:10.259Z,100161.19
2022-08-10T00:02:38.684Z,100163.09
2022-08-10T00:05:07.525Z,100157.53
2022-08-10T00:07:35.336Z,100157.34
2022-08-10T00:10:04.009Z,100155.59
2022-08-10T00:12:53.761Z,100147.56
2022-08-10T00:15:52.222Z,100146.78
2022-08-10T00:18:11.348Z,100143.91
2022-08-10T00:21:00.937Z,100152.81
2022-08-10T00:23:30.401Z,100148.78
2022-08-10T00:25:58.189Z,100146.78
2022-08-10T00:28:25.940Z,100148.44
2022-08-10T00:30:54.094Z,100149.31
2022-08-10T00:33:22.280Z,100150.72
2022-08-10T00:35:51.369Z,100150.47
2022-08-10T00:38:21.036Z,100151.41
2022-08-10T00:40:49.611Z,100145.63
2022-08-10T00:43:23.667Z,100150.34
2022-08-10T00:45:59.307Z,100143.84
2022-08-10T00:48:31.102Z,100146.13
2022-08-10T00:51:00.797Z,100146.38
2022-08-10T00:53:29.516Z,100144.78
2022-08-10T00:57:14.521Z,100143.28
2022-08-10T00:58:47.328Z,100141.84
2022-08-10T01:02:10.601Z,100143.81
2022-08-10T01:04:40.237Z,100137.59
2022-08-10T01:07:37.275Z,100139.47
2022-08-10T01:10:42.346Z,100140.28
2022-08-10T01:13:50.054Z,100135.78
2022-08-10T01:16:41.172Z,100142.53
2022-08-10T01:19:49.050Z,100148.81
2022-08-10T01:23:25.128Z,100143.38
2022-08-10T01:26:11.816Z,100140.59
2022-08-10T01:30:01.202Z,100137.25
2022-08-10T01:33:18.783Z,100145.81
2022-08-10T01:36:18.649Z,100142.09
2022-08-10T01:38:50.831Z,100141.19
2022-08-10T01:41:46.665Z,100148.84
2022-08-10T01:44:28.755Z,100141.13
2022-08-10T01:47:29.976Z,100137.41
2022-08-10T01:50:10.868Z,100138.41
2022-08-10T01:52:43.243Z,100146.09
2022-08-10T01:55:14.937Z,100136.78
2022-08-10T01:57:47.823Z,100140.88
2022-08-10T02:00:18.307Z,100138.31
2022-08-10T02:02:48.880Z,100135.41
2022-08-10T02:05:19.059Z,100136.16
2022-08-10T02:07:48.952Z,100135.88
2022-08-10T02:10:19.630Z,100131.97
2022-08-10T02:12:48.160Z,100134.22
2022-08-10T02:15:20.198Z,100131.47
2022-08-10T02:18:01.821Z,100133.75
2022-08-10T02:20:41.831Z,100132.63
2022-08-10T02:23:40.408Z,100131.00
2022-08-10T02:26:10.387Z,100125.91
2022-08-10T02:28:40.001Z,100126.25
2022-08-10T02:31:22.989Z,100129.09
2022-08-10T02:33:57.208Z,100129.75
2022-08-10T02:36:31.289Z,100133.00
2022-08-10T02:39:05.966Z,100133.44
2022-08-10T02:45:13.075Z,100136.41
2022-08-10T02:45:23.631Z,100132.63
2022-08-10T02:48:12.747Z,100138.78
2022-08-10T02:50:51.341Z,100134.66
2022-08-10T02:53:56.608Z,100141.72
2022-08-10T02:56:59.052Z,100143.97
2022-08-10T02:59:45.232Z,100147.47
2022-08-10T03:02:44.114Z,100146.66
2022-08-10T03:05:17.628Z,100149.84
2022-08-10T03:08:23.084Z,100150.25
2022-08-10T03:10:53.727Z,100150.47
2022-08-10T03:13:24.860Z,100144.81
2022-08-10T03:15:57.075Z,100152.47
2022-08-10T03:18:26.105Z,100143.69
2022-08-10T03:20:56.652Z,100153.44
2022-08-10T03:23:26.227Z,100152.19
2022-08-10T03:25:59.082Z,100150.28
2022-08-10T03:28:33.430Z,100154.22
2022-08-10T03:31:03.064Z,100152.41
2022-08-10T03:33:38.229Z,100160.06
2022-08-10T03:36:41.691Z,100166.34
2022-08-10T03:39:00.035Z,100174.13
2022-08-10T03:41:53.492Z,100172.63
2022-08-10T03:44:33.300Z,100175.25
2022-08-10T03:47:04.867Z,100172.78
2022-08-10T03:49:49.230Z,100181.38
2022-08-10T03:52:19.682Z,100190.00
2022-08-10T03:54:51.694Z,100194.72
2022-08-10T03:57:22.578Z,100185.06
2022-08-10T03:59:52.314Z,100186.06
2022-08-10T04:02:44.495Z,100184.09
2022-08-10T04:05:09.196Z,100191.97
2022-08-10T04:07:38.691Z,100189.47
2022-08-10T04:10:13.043Z,100188.13
2022-08-10T04:12:41.290Z,100192.44
2022-08-10T04:15:09.883Z,100191.00
2022-08-10T04:18:01.311Z,100194.19
2022-08-10T04:21:03.790Z,100196.22
2022-08-10T04:23:34.938Z,100193.66
2022-08-10T04:26:02.721Z,100196.84
2022-08-10T04:28:31.843Z,100194.78
2022-08-10T04:31:02.799Z,100201.59
2022-08-10T04:33:34.244Z,100204.19
2022-08-10T04:36:07.049Z,100204.88
2022-08-10T04:38:37.922Z,100201.50
2022-08-10T04:41:07.913Z,100208.19
2022-08-10T04:43:38.076Z,100199.75
2022-08-10T04:46:08.864Z,100192.59
2022-08-10T04:49:01.445Z,100197.88
2022-08-10T04:51:31.640Z,100195.34
2022-08-10T04:54:04.056Z,100194.56
2022-08-10T04:56:39.687Z,100186.84
2022-08-10T04:59:11.793Z,100186.38
2022-08-10T05:02:29.067Z,100191.75
2022-08-10T05:04:36.588Z,100195.81
2022-08-10T05:07:16.579Z,100187.94
2022-08-10T05:10:03.734Z,100196.84
2022-08-10T05:12:38.718Z,100195.16
2022-08-10T05:18:19.544Z,100207.56
2022-08-10T05:20:50.287Z,100207.72
2022-08-10T05:23:19.846Z,100210.75
2022-08-10T05:25:48.322Z,100215.19
2022-08-10T05:28:17.788Z,100211.94
2022-08-10T05:30:47.357Z,100222.66
2022-08-10T05:33:16.870Z,100208.91
2022-08-10T05:35:56.536Z,100211.56
2022-08-10T05:38:28.795Z,100210.81
2022-08-10T05:40:58.621Z,100216.78
2022-08-10T05:43:27.805Z,100206.06
2022-08-10T05:46:19.209Z,100209.88
2022-08-10T05:48:56.810Z,100199.91
2022-08-10T05:51:30.323Z,100204.78
2022-08-10T05:54:06.280Z,100206.03
2022-08-10T05:56:55.132Z,100207.28
2022-08-10T06:00:34.007Z,100211.16
2022-08-10T06:02:41.202Z,100208.28
2022-08-10T06:05:14.263Z,100206.41
2022-08-10T06:08:00.581Z,100203.41
2022-08-10T06:10:35.279Z,100204.84
2022-08-10T06:13:34.504Z,100205.47
2022-08-10T06:16:16.874Z,100203.00
2022-08-10T06:18:47.411Z,100209.50
2022-08-10T06:21:17.847Z,100206.72
2022-08-10T06:23:49.010Z,100201.91
2022-08-10T06:26:21.383Z,100198.84
2022-08-10T06:29:07.415Z,100197.88
2022-08-10T06:31:52.287Z,100206.53
2022-08-10T06:34:39.135Z,100198.50
2022-08-10T06:37:13.370Z,100200.81
2022-08-10T06:39:44.823Z,100199.19
2022-08-10T06:42:37.792Z,100201.25
2022-08-10T06:45:14.151Z,100200.44
2022-08-10T06:48:02.823Z,100195.13
2022-08-10T06:50:44.874Z,100203.72
2022-08-10T06:53:22.547Z,100208.13
2022-08-10T06:56:12.641Z,100194.66
2022-08-10T06:59:07.836Z,100200.47
2022-08-10T07:01:52.400Z,100204.47
2022-08-10T07:04:42.640Z,100204.59
2022-08-10T07:07:20.797Z,100202.78
2022-08-10T07:09:52.690Z,100208.00
2022-08-10T07:12:22.877Z,100209.06
2022-08-10T07:14:55.203Z,100210.97
2022-08-10T07:17:27.333Z,100208.88
2022-08-10T07:19:59.967Z,100202.41
2022-08-10T07:23:55.639Z,100210.09
2022-08-10T07:25:26.825Z,100205.44
2022-08-10T07:28:01.851Z,100199.47
2022-08-10T07:30:38.876Z,100205.53
2022-08-10T07:33:10.823Z,100195.19
2022-08-10T07:35:43.713Z,100200.13
2022-08-10T07:38:27.172Z,100203.03
2022-08-10T07:41:02.934Z,100205.66
2022-08-10T07:43:39.467Z,100204.44
2022-08-10T07:46:15.067Z,100199.28
2022-08-10T07:48:58.429Z,100200.97
2022-08-10T07:51:29.869Z,100195.16
2022-08-10T07:54:06.040Z,100201.66
2022-08-10T07:56:48.990Z,100203.59
2022-08-10T07:59:28.681Z,100205.66
2022-08-10T08:02:01.051Z,100200.16
2022-08-10T08:04:31.451Z,100196.66
2022-08-10T08:07:04.557Z,100209.03
2022-08-10T08:09:38.479Z,100201.84
2022-08-10T08:12:28.026Z,100214.22
2022-08-10T08:15:00.883Z,100205.59
2022-08-10T08:18:00.453Z,100214.69
2022-08-10T08:20:31.194Z,100203.72
2022-08-10T08:24:05.777Z,100200.09
2022-08-10T08:25:52.461Z,100200.13
2022-08-10T08:28:23.519Z,100199.56
2022-08-10T08:30:54.624Z,100202.72
2022-08-10T08:33:42.135Z,100211.91
2022-08-10T08:36:18.955Z,100204.81
2022-08-10T08:38:48.773Z,100198.09
2022-08-10T08:41:46.480Z,100199.13
2022-08-10T08:45:06.539Z,100203.06
2022-08-10T08:48:19.526Z,100200.69
2022-08-10T08:52:07.219Z,100195.63
2022-08-10T08:54:48.757Z,100192.78
2022-08-10T08:57:49.743Z,100198.31
2022-08-10T09:01:02.630Z,100196.88
2022-08-10T09:04:27.918Z,100192.94
2022-08-10T09:08:06.631Z,100201.84
2022-08-10T09:11:13.483Z,100205.69
2022-08-10T09:14:05.430Z,100200.75
2022-08-10T09:17:32.514Z,100193.81
2022-08-10T09:21:09.384Z,100198.91
2022-08-10T09:24:16.496Z,100187.13
2022-08-10T09:26:53.789Z,100189.25
2022-08-10T09:29:30.165Z,100188.44
2022-08-10T09:36:14.702Z,100186.97
2022-08-10T09:36:23.685Z,100176.44
2022-08-10T09:40:56.506Z,100182.53
2022-08-10T09:42:21.378Z,100187.44
2022-08-10T09:45:27.789Z,100178.22
2022-08-10T09:48:44.011Z,100177.44
2022-08-10T09:51:51.545Z,100173.69
2022-08-10T09:54:54.988Z,100190.03
2022-08-10T09:58:38.517Z,100174.56
2022-08-10T10:02:03.115Z,100162.13
2022-08-10T10:05:11.240Z,100171.97
2022-08-10T10:08:10.642Z,100165.53
2022-08-10T10:11:04.974Z,100160.06
2022-08-10T10:14:12.570Z,100160.34
2022-08-10T10:17:03.557Z,100159.91
2022-08-10T10:20:15.616Z,100160.44
2022-08-10T10:23:02.936Z,100156.63
2022-08-10T10:25:51.699Z,100156.44
2022-08-10T10:29:15.345Z,100161.19
2022-08-10T10:31:58.668Z,100154.47
2022-08-10T10:35:16.699Z,100158.63
2022-08-10T10:38:01.103Z,100152.69
2022-08-10T10:40:53.565Z,100145.63
2022-08-10T10:44:04.304Z,100143.31
2022-08-10T10:47:05.283Z,100146.16
2022-08-10T10:50:18.323Z,100140.81
2022-08-10T10:53:19.379Z,100141.16
2022-08-10T10:56:15.475Z,100147.38
2022-08-10T10:59:56.181Z,100130.50
2022-08-10T11:03:20.606Z,100138.09
2022-08-10T11:06:39.795Z,100130.38
2022-08-10T11:10:04.593Z,100124.59
2022-08-10T11:14:24.801Z,100131.03
2022-08-10T11:16:21.232Z,100126.72
2022-08-10T11:19:15.258Z,100119.16
2022-08-10T11:22:36.712Z,100120.88
2022-08-10T11:25:27.941Z,100116.09
2022-08-10T11:28:31.491Z,100119.44
2022-08-10T11:31:40.647Z,100109.44
2022-08-10T11:34:48.540Z,100109.81
2022-08-10T11:38:29.809Z,100105.69
2022-08-10T11:42:12.441Z,100112.22
2022-08-10T11:45:02.616Z,100116.13
2022-08-10T11:47:54.586Z,100107.16
2022-08-10T11:50:44.551Z,100109.56
2022-08-10T11:53:53.608Z,100095.22
2022-08-10T11:56:51.247Z,100104.38
2022-08-10T11:59:58.129Z,100105.69
2022-08-10T12:02:47.390Z,100105.28
2022-08-10T12:05:51.786Z,100107.09
2022-08-10T12:10:04.279Z,100101.59
2022-08-10T12:11:24.160Z,100104.19
2022-08-10T12:14:39.256Z,100103.25
2022-08-10T12:17:29.615Z,100092.56
2022-08-10T12:20:23.815Z,100093.88
2022-08-10T12:23:12.610Z,100086.88
2022-08-10T12:26:07.713Z,100083.25
2022-08-10T12:29:25.493Z,100083.84
2022-08-10T12:32:08.435Z,100079.31
2022-08-10T12:34:51.872Z,100084.53
2022-08-10T12:38:08.644Z,100091.16
2022-08-10T12:40:56.330Z,100081.44
2022-08-10T12:44:05.777Z,100073.88
2022-08-10T12:47:14.340Z,100071.38
2022-08-10T12:50:33.397Z,100068.75
2022-08-10T12:53:51.492Z,100067.38
2022-08-10T12:56:35.728Z,100063.88
2022-08-10T12:59:11.761Z,100058.75
2022-08-10T13:02:07.438Z,100060.78
2022-08-10T13:04:38.893Z,100066.25
2022-08-10T13:07:10.295Z,100056.84
2022-08-10T13:10:14.474Z,100055.25
2022-08-10T13:12:49.435Z,100053.94
2022-08-10T13:15:49.336Z,100054.31
2022-08-10T13:18:34.014Z,100051.53
2022-08-10T13:21:20.473Z,100036.91
2022-08-10T13:24:12.047Z,100041.00
2022-08-10T13:27:25.833Z,100055.91
2022-08-10T13:30:03.447Z,100048.88
2022-08-10T13:32:37.180Z,100042.66
2022-08-10T13:35:17.731Z,100041.06
2022-08-10T13:37:49.333Z,100038.53
2022-08-10T13:40:21.777Z,100028.19
2022-08-10T13:42:53.577Z,100032.09
2022-08-10T13:45:26.224Z,100033.84
2022-08-10T13:48:18.026Z,100025.81
2022-08-10T13:50:51.680Z,100022.06
2022-08-10T13:53:23.403Z,100034.03
2022-08-10T13:55:59.021Z,100024.38
2022-08-10T13:58:37.655Z,100017.59
2022-08-10T14:01:31.700Z,100019.53
2022-08-10T14:04:06.223Z,100021.91
2022-08-10T14:06:36.526Z,100022.72
2022-08-10T14:09:12.383Z,100024.06
2022-08-10T14:11:44.092Z,100016.56
2022-08-10T14:14:20.885Z,100017.69
2022-08-10T14:16:52.007Z,100013.34
2022-08-10T14:19:32.986Z,100013.09
2022-08-10T14:22:01.780Z,100003.53
2022-08-10T14:24:33.869Z,100012.13
2022-08-10T14:27:12.354Z,100000.16
2022-08-10T14:29:55.129Z,100008.66
2022-08-10T14:32:30.856Z,100001.69
2022-08-10T14:36:21.385Z,100005.31
2022-08-10T14:38:10.033Z,99995.09
2022-08-10T14:40:53.053Z,100002.25
2022-08-10T14:43:30.130Z,100002.13
2022-08-10T14:46:08.282Z,100000.41
2022-08-10T14:48:43.927Z,99981.81
2022-08-10T14:51:19.221Z,99997.28
2022-08-10T14:54:02.200Z,99991.19
2022-08-10T14:56:35.088Z,99991.03
2022-08-10T14:59:07.738Z,100002.19
2022-08-10T15:02:00.992Z,99989.22
2022-08-10T15:04:37.303Z,99987.59
2022-08-10T15:07:29.814Z,99983.72
2022-08-10T15:10:03.937Z,99988.72
2022-08-10T15:12:38.879Z,99991.38
2022-08-10T15:15:16.587Z,99978.81
2022-08-10T15:17:57.377Z,99989.09
2022-08-10T15:20:31.421Z,99983.03
2022-08-10T15:23:29.844Z,99979.22
2022-08-10T15:26:11.209Z,99991.66
2022-08-10T15:29:23.448Z,99988.56
2022-08-10T15:32:00.214Z,99985.44
2022-08-10T15:34:53.564Z,99991.53
2022-08-10T15:37:47.367Z,99988.22
2022-08-10T15:40:30.677Z,99987.72
2022-08-10T15:43:29.110Z,99997.69
2022-08-10T15:46:30.171Z,99988.22
2022-08-10T15:49:11.769Z,99988.31
2022-08-10T15:52:39.858Z,99987.06
2022-08-10T15:55:43.845Z,99985.03
2022-08-10T15:58:52.264Z,99983.56
2022-08-10T16:02:14.856Z,99986.59
2022-08-10T16:05:13.408Z,99981.06
2022-08-10T16:07:51.740Z,99990.22
2022-08-10T16:10:39.041Z,99990.56
2022-08-10T16:13:59.708Z,99986.81
2022-08-10T16:16:14.544Z,99986.81
2022-08-10T16:18:46.550Z,99983.94
2022-08-10T16:21:23.619Z,99992.06
2022-08-10T16:24:15.278Z,99986.13
2022-08-10T16:26:52.862Z,99993.41
2022-08-10T16:29:26.420Z,99991.09
2022-08-10T16:32:04.404Z,99990.69
2022-08-10T16:34:38.222Z,99985.47
2022-08-10T16:37:15.425Z,99998.72
2022-08-10T16:39:57.887Z,99992.88
2022-08-10T16:42:44.967Z,99989.16
2022-08-10T16:45:28.212Z,99992.03
2022-08-10T16:47:59.966Z,99994.53
2022-08-10T16:50:55.148Z,99995.38
2022-08-10T16:53:27.071Z,99990.06
2022-08-10T16:56:02.136Z,99987.50
2022-08-10T16:58:44.386Z,99993.69
2022-08-10T17:01:22.092Z,99991.88
2022-08-10T17:04:06.173Z,99989.81
2022-08-10T17:06:58.773Z,99988.28
2022-08-10T17:09:33.324Z,99989.03
2022-08-10T17:12:13.706Z,99998.56
2022-08-10T17:14:44.751Z,100006.00
2022-08-10T17:17:33.363Z,99996.28
2022-08-10T17:20:32.049Z,99997.97
2022-08-10T17:23:06.729Z,99997.69
2022-08-10T17:25:49.133Z,100001.31
2022-08-10T17:28:35.200Z,100007.16
2022-08-10T17:31:27.816Z,100002.88
2022-08-10T17:34:27.235Z,100008.75
2022-08-10T17:37:11.478Z,100009.72
2022-08-10T17:40:15.353Z,100008.53
2022-08-10T17:42:48.244Z,100013.63
2022-08-10T17:45:48.400Z,100008.22
2022-08-10T17:48:30.555Z,100006.63
2022-08-10T17:51:02.616Z,100011.56
2022-08-10T17:53:51.694Z,100016.75
2022-08-10T17:56:23.392Z,100014.31
2022-08-10T17:59:04.043Z,100013.16
2022-08-10T18:01:38.420Z,100015.28
2022-08-10T18:04:18.868Z,100018.84
2022-08-10T18:06:59.322Z,100021.88
2022-08-10T18:09:51.927Z,100012.53
2022-08-10T18:12:39.170Z,100021.78
2022-08-10T18:15:14.096Z,100017.56
2022-08-10T18:17:55.476Z,100012.09
2022-08-10T18:20:37.225Z,100017.94
2022-08-10T18:23:08.813Z,100023.41
2022-08-10T18:25:41.926Z,100024.44
2022-08-10T18:28:19.469Z,100031.69
2022-08-10T18:30:53.163Z,100029.13
2022-08-10T18:33:42.304Z,100034.03
2022-08-10T18:36:13.900Z,100034.09
2022-08-10T18:38:50.126Z,100040.28
2022-08-10T18:42:00.185Z,100040.63
2022-08-10T18:45:16.294Z,100045.09
2022-08-10T18:48:07.407Z,100046.44
2022-08-10T18:50:53.215Z,100056.59
2022-08-10T18:53:51.071Z,100043.88
2022-08-10T18:56:29.503Z,100050.06
2022-08-10T18:59:32.835Z,100051.94
2022-08-10T19:02:56.015Z,100051.91
2022-08-10T19:05:53.263Z,100055.69
2022-08-10T19:08:50.189Z,100059.75
2022-08-10T19:11:56.002Z,100056.88
2022-08-10T19:14:37.748Z,100066.75
2022-08-10T19:18:03.391Z,100059.88
2022-08-10T19:21:08.477Z,100064.31
2022-08-10T19:24:35.171Z,100065.38
2022-08-10T19:27:33.230Z,100075.41
2022-08-10T19:30:15.584Z,100077.72
2022-08-10T19:33:27.615Z,100061.88
2022-08-10T19:36:43.705Z,100068.81
2022-08-10T19:40:44.053Z,100076.19
2022-08-10T19:43:59.943Z,100073.84
2022-08-10T19:47:07.352Z,100068.22
2022-08-10T19:50:18.314Z,100072.69
2022-08-10T19:53:08.867Z,100073.56
2022-08-10T19:56:34.231Z,100074.84
2022-08-10T20:00:15.247Z,100074.00
2022-08-10T20:02:31.405Z,100077.25
2022-08-10T20:05:26.589Z,100071.69
2022-08-10T20:08:20.256Z,100081.94
2022-08-10T20:11:46.462Z,100084.75
2022-08-10T20:14:32.629Z,100086.81
2022-08-10T20:17:13.607Z,100098.13
2022-08-10T20:20:05.880Z,100095.06
2022-08-10T20:22:51.965Z,100101.66
2022-08-10T20:25:32.401Z,100109.13
2022-08-10T20:28:32.259Z,100100.50
2022-08-10T20:31:20.116Z,100105.56
2022-08-10T20:34:38.564Z,100113.91
2022-08-10T20:37:45.316Z,100115.53
2022-08-10T20:41:12.343Z,100115.13
2022-08-10T20:44:03.416Z,100120.66
2022-08-10T20:47:12.473Z,100122.31
2022-08-10T20:50:27.388Z,100121.59
2022-08-10T20:53:02.197Z,100116.38
2022-08-10T20:55:54.334Z,100123.00
2022-08-10T20:58:41.484Z,100119.44
2022-08-10T21:02:06.708Z,100126.78
2022-08-10T21:04:42.434Z,100120.16
2022-08-10T21:08:26.824Z,100120.84
2022-08-10T21:11:22.369Z,100120.91
2022-08-10T21:14:55.216Z,100120.34
2022-08-10T21:18:10.734Z,100122.81
2022-08-10T21:24:32.357Z,100123.28
2022-08-10T21:25:42.244Z,100124.88
2022-08-10T21:27:40.821Z,100123.38
2022-08-10T21:30:17.865Z,100125.41
2022-08-10T21:33:07.522Z,100112.00
2022-08-10T21:35:57.404Z,100119.56
2022-08-10T21:39:14.190Z,100117.19
2022-08-10T21:42:16.937Z,100115.78
2022-08-10T21:45:59.901Z,100105.91
2022-08-10T21:49:24.260Z,100099.94
2022-08-10T21:53:04.482Z,100099.94
2022-08-10T21:56:20.473Z,100097.66
2022-08-10T21:59:27.118Z,100099.06
2022-08-10T22:02:22.906Z,100092.69
2022-08-10T22:05:22.520Z,100087.53
2022-08-10T22:08:16.876Z,100102.34
2022-08-10T22:11:13.999Z,100095.91
2022-08-10T22:14:09.566Z,100090.84
2022-08-10T22:17:06.502Z,100090.09
2022-08-10T22:20:29.160Z,100092.13
2022-08-10T22:24:16.563Z,100090.91
2022-08-10T22:27:47.042Z,100093.53
2022-08-10T22:31:28.000Z,100093.78
2022-08-10T22:34:52.071Z,100094.16
2022-08-10T22:39:05.096Z,100087.28
2022-08-10T22:42:20.888Z,100085.72
2022-08-10T22:45:12.458Z,100081.53
2022-08-10T22:47:58.628Z,100079.78
2022-08-10T22:50:28.393Z,100085.94
2022-08-10T22:53:07.143Z,100086.97
2022-08-10T22:56:00.013Z,100082.34
2022-08-10T22:58:48.129Z,100085.72
2022-08-10T23:01:40.905Z,100087.44
2022-08-10T23:04:39.218Z,100095.47
2022-08-10T23:07:18.154Z,100089.09
2022-08-10T23:09:54.454Z,100084.25
2022-08-10T23:12:43.872Z,100088.13
2022-08-10T23:16:02.062Z,100092.94
2022-08-10T23:18:59.160Z,100083.31
2022-08-10T23:22:04.140Z,100089.59
2022-08-10T23:25:02.869Z,100080.69
2022-08-10T23:27:37.667Z,100081.81
2022-08-10T23:30:18.115Z,100085.66
2022-08-10T23:32:52.949Z,100087.28
2022-08-10T23:36:31.078Z,100095.81
2022-08-10T23:38:22.235Z,100088.16
2022-08-10T23:40:56.561Z,100081.19
2022-08-10T23:44:03.205Z,100069.91
2022-08-10T23:46:38.958Z,100062.56
2022-08-10T23:49:11.517Z,100068.03
2022-08-10T23:51:56.416Z,100073.72
2022-08-10T23:54:25.920Z,100077.41
2022-08-10T23:57:01.054Z,100067.75
2022-08-10T23:59:32.086Z,100075.00
